sensor_id;sensor_type;location;lat;lon;timestamp;P1;durP1;ratioP1;P2;durP2;ratioP2
50231;SDS011;36118;56.468;84.952;2024-03-02T00:01:46;30.17;;;13.90;;
50231;SDS011;36118;56.468;84.952;2024-03-02T00:06:53;30.73;;;14.00;;
50231;SDS011;36118;56.468;84.952;2024-03-02T00:12:00;30.13;;;13.95;;
50231;SDS011;36118;56.468;84.952;2024-03-02T00:17:03;26.40;;;12.02;;
50231;SDS011;36118;56.468;84.952;2024-03-02T00:22:07;27.48;;;13.40;;
50231;SDS011;36118;56.468;84.952;2024-03-02T00:27:12;29.00;;;12.25;;
50231;SDS011;36118;56.468;84.952;2024-03-02T00:32:17;29.73;;;12.27;;
50231;SDS011;36118;56.468;84.952;2024-03-02T00:37:20;22.13;;;10.10;;
50231;SDS011;36118;56.468;84.952;2024-03-02T00:42:23;23.38;;;9.15;;
50231;SDS011;36118;56.468;84.952;2024-03-02T00:47:27;20.70;;;9.00;;
50231;SDS011;36118;56.468;84.952;2024-03-02T00:52:30;23.63;;;11.53;;
50231;SDS011;36118;56.468;84.952;2024-03-02T01:02:38;26.42;;;11.68;;
50231;SDS011;36118;56.468;84.952;2024-03-02T01:07:42;27.17;;;13.50;;
50231;SDS011;36118;56.468;84.952;2024-03-02T01:12:45;27.70;;;13.43;;
50231;SDS011;36118;56.468;84.952;2024-03-02T01:17:49;29.50;;;15.60;;
50231;SDS011;36118;56.468;84.952;2024-03-02T01:22:54;32.38;;;16.27;;
50231;SDS011;36118;56.468;84.952;2024-03-02T01:27:58;35.22;;;17.35;;
50231;SDS011;36118;56.468;84.952;2024-03-02T01:33:02;31.95;;;15.40;;
50231;SDS011;36118;56.468;84.952;2024-03-02T01:38:08;30.10;;;13.77;;
50231;SDS011;36118;56.468;84.952;2024-03-02T01:43:14;31.30;;;14.43;;
50231;SDS011;36118;56.468;84.952;2024-03-02T01:48:18;33.38;;;15.80;;
50231;SDS011;36118;56.468;84.952;2024-03-02T01:53:21;30.90;;;15.88;;
50231;SDS011;36118;56.468;84.952;2024-03-02T01:58:25;36.38;;;17.85;;
50231;SDS011;36118;56.468;84.952;2024-03-02T02:03:28;39.58;;;18.63;;
50231;SDS011;36118;56.468;84.952;2024-03-02T02:08:32;37.33;;;17.60;;
50231;SDS011;36118;56.468;84.952;2024-03-02T02:13:35;35.58;;;17.20;;
50231;SDS011;36118;56.468;84.952;2024-03-02T02:18:39;34.97;;;17.57;;
50231;SDS011;36118;56.468;84.952;2024-03-02T02:23:43;24.17;;;11.50;;
50231;SDS011;36118;56.468;84.952;2024-03-02T02:28:55;33.95;;;14.90;;
50231;SDS011;36118;56.468;84.952;2024-03-02T02:33:58;24.77;;;12.70;;
50231;SDS011;36118;56.468;84.952;2024-03-02T02:39:02;13.63;;;7.37;;
50231;SDS011;36118;56.468;84.952;2024-03-02T02:44:14;19.35;;;9.20;;
50231;SDS011;36118;56.468;84.952;2024-03-02T02:49:18;27.15;;;9.85;;
50231;SDS011;36118;56.468;84.952;2024-03-02T02:54:21;21.23;;;10.32;;
50231;SDS011;36118;56.468;84.952;2024-03-02T02:59:23;29.92;;;12.90;;
50231;SDS011;36118;56.468;84.952;2024-03-02T03:04:27;27.02;;;13.00;;
50231;SDS011;36118;56.468;84.952;2024-03-02T03:09:30;27.17;;;12.67;;
50231;SDS011;36118;56.468;84.952;2024-03-02T03:14:36;25.60;;;10.70;;
50231;SDS011;36118;56.468;84.952;2024-03-02T03:19:45;13.95;;;6.93;;
50231;SDS011;36118;56.468;84.952;2024-03-02T03:24:49;21.98;;;11.50;;
50231;SDS011;36118;56.468;84.952;2024-03-02T03:29:52;26.58;;;12.68;;
50231;SDS011;36118;56.468;84.952;2024-03-02T03:35:01;17.80;;;8.77;;
50231;SDS011;36118;56.468;84.952;2024-03-02T03:40:07;22.33;;;11.23;;
50231;SDS011;36118;56.468;84.952;2024-03-02T03:45:13;22.52;;;10.20;;
50231;SDS011;36118;56.468;84.952;2024-03-02T03:50:16;11.55;;;5.85;;
50231;SDS011;36118;56.468;84.952;2024-03-02T03:55:19;18.20;;;9.83;;
50231;SDS011;36118;56.468;84.952;2024-03-02T04:00:22;21.45;;;10.13;;
50231;SDS011;36118;56.468;84.952;2024-03-02T04:05:25;15.38;;;6.72;;
50231;SDS011;36118;56.468;84.952;2024-03-02T04:10:30;19.80;;;8.48;;
50231;SDS011;36118;56.468;84.952;2024-03-02T04:15:33;18.00;;;8.48;;
50231;SDS011;36118;56.468;84.952;2024-03-02T04:20:36;18.20;;;8.73;;
50231;SDS011;36118;56.468;84.952;2024-03-02T04:25:41;19.48;;;9.52;;
50231;SDS011;36118;56.468;84.952;2024-03-02T04:30:43;17.08;;;8.52;;
50231;SDS011;36118;56.468;84.952;2024-03-02T04:35:47;19.58;;;10.68;;
50231;SDS011;36118;56.468;84.952;2024-03-02T04:40:51;24.33;;;11.60;;
50231;SDS011;36118;56.468;84.952;2024-03-02T04:50:58;24.40;;;8.18;;
50231;SDS011;36118;56.468;84.952;2024-03-02T04:56:02;19.13;;;8.63;;
50231;SDS011;36118;56.468;84.952;2024-03-02T05:01:36;28.67;;;12.83;;
50231;SDS011;36118;56.468;84.952;2024-03-02T05:06:39;25.90;;;11.93;;
50231;SDS011;36118;56.468;84.952;2024-03-02T05:11:45;14.07;;;7.10;;
50231;SDS011;36118;56.468;84.952;2024-03-02T05:17:07;24.25;;;11.80;;
50231;SDS011;36118;56.468;84.952;2024-03-02T05:22:10;20.88;;;9.52;;
50231;SDS011;36118;56.468;84.952;2024-03-02T05:27:13;21.38;;;9.82;;
50231;SDS011;36118;56.468;84.952;2024-03-02T05:32:16;26.45;;;12.45;;
50231;SDS011;36118;56.468;84.952;2024-03-02T05:37:19;23.98;;;14.18;;
50231;SDS011;36118;56.468;84.952;2024-03-02T05:42:23;15.90;;;7.00;;
50231;SDS011;36118;56.468;84.952;2024-03-02T05:47:26;19.88;;;10.23;;
50231;SDS011;36118;56.468;84.952;2024-03-02T05:52:31;19.50;;;9.30;;
50231;SDS011;36118;56.468;84.952;2024-03-02T05:57:34;20.40;;;9.77;;
50231;SDS011;36118;56.468;84.952;2024-03-02T06:02:47;16.98;;;8.52;;
50231;SDS011;36118;56.468;84.952;2024-03-02T06:07:51;20.50;;;9.13;;
50231;SDS011;36118;56.468;84.952;2024-03-02T06:12:53;18.27;;;8.32;;
50231;SDS011;36118;56.468;84.952;2024-03-02T06:17:57;19.70;;;8.95;;
50231;SDS011;36118;56.468;84.952;2024-03-02T06:23:01;19.42;;;10.32;;
50231;SDS011;36118;56.468;84.952;2024-03-02T06:28:04;22.05;;;11.98;;
50231;SDS011;36118;56.468;84.952;2024-03-02T06:33:08;14.00;;;6.90;;
50231;SDS011;36118;56.468;84.952;2024-03-02T06:38:12;22.17;;;11.88;;
50231;SDS011;36118;56.468;84.952;2024-03-02T06:43:16;22.48;;;9.80;;
50231;SDS011;36118;56.468;84.952;2024-03-02T06:48:20;15.85;;;8.15;;
50231;SDS011;36118;56.468;84.952;2024-03-02T06:58:26;28.40;;;8.57;;
50231;SDS011;36118;56.468;84.952;2024-03-02T07:03:29;21.48;;;9.68;;
50231;SDS011;36118;56.468;84.952;2024-03-02T07:08:33;27.65;;;10.45;;
50231;SDS011;36118;56.468;84.952;2024-03-02T07:13:39;17.42;;;9.98;;
50231;SDS011;36118;56.468;84.952;2024-03-02T07:18:42;20.20;;;11.10;;
50231;SDS011;36118;56.468;84.952;2024-03-02T07:23:48;18.45;;;9.63;;
50231;SDS011;36118;56.468;84.952;2024-03-02T07:28:53;20.00;;;10.38;;
50231;SDS011;36118;56.468;84.952;2024-03-02T07:33:58;15.90;;;9.13;;
50231;SDS011;36118;56.468;84.952;2024-03-02T07:39:02;17.55;;;8.02;;
50231;SDS011;36118;56.468;84.952;2024-03-02T07:44:04;19.90;;;10.52;;
50231;SDS011;36118;56.468;84.952;2024-03-02T07:49:08;19.60;;;11.38;;
50231;SDS011;36118;56.468;84.952;2024-03-02T07:54:12;20.15;;;10.80;;
50231;SDS011;36118;56.468;84.952;2024-03-02T07:59:17;21.80;;;10.52;;
50231;SDS011;36118;56.468;84.952;2024-03-02T08:04:30;20.85;;;9.77;;
50231;SDS011;36118;56.468;84.952;2024-03-02T08:09:33;17.90;;;9.60;;
50231;SDS011;36118;56.468;84.952;2024-03-02T08:14:36;16.42;;;8.90;;
50231;SDS011;36118;56.468;84.952;2024-03-02T08:19:40;16.92;;;8.80;;
50231;SDS011;36118;56.468;84.952;2024-03-02T08:29:48;17.33;;;7.75;;
50231;SDS011;36118;56.468;84.952;2024-03-02T08:34:54;18.95;;;8.95;;
50231;SDS011;36118;56.468;84.952;2024-03-02T08:40:00;16.42;;;8.73;;
50231;SDS011;36118;56.468;84.952;2024-03-02T08:45:04;18.10;;;8.43;;
50231;SDS011;36118;56.468;84.952;2024-03-02T08:50:08;20.23;;;9.27;;
50231;SDS011;36118;56.468;84.952;2024-03-02T08:55:12;14.27;;;7.75;;
50231;SDS011;36118;56.468;84.952;2024-03-02T09:00:15;18.15;;;8.40;;
50231;SDS011;36118;56.468;84.952;2024-03-02T09:05:21;15.60;;;6.18;;
50231;SDS011;36118;56.468;84.952;2024-03-02T09:10:24;15.50;;;7.65;;
50231;SDS011;36118;56.468;84.952;2024-03-02T09:15:29;19.70;;;8.35;;
50231;SDS011;36118;56.468;84.952;2024-03-02T09:20:35;20.65;;;7.82;;
50231;SDS011;36118;56.468;84.952;2024-03-02T09:25:38;5.53;;;2.03;;
50231;SDS011;36118;56.468;84.952;2024-03-02T09:30:42;13.57;;;7.35;;
50231;SDS011;36118;56.468;84.952;2024-03-02T09:40:51;16.65;;;6.70;;
50231;SDS011;36118;56.468;84.952;2024-03-02T09:45:55;17.08;;;6.97;;
50231;SDS011;36118;56.468;84.952;2024-03-02T09:50:59;8.75;;;4.75;;
50231;SDS011;36118;56.468;84.952;2024-03-02T09:56:04;14.45;;;6.97;;
50231;SDS011;36118;56.468;84.952;2024-03-02T10:01:07;19.48;;;7.57;;
50231;SDS011;36118;56.468;84.952;2024-03-02T10:06:23;16.70;;;6.43;;
50231;SDS011;36118;56.468;84.952;2024-03-02T10:11:31;10.35;;;4.50;;
50231;SDS011;36118;56.468;84.952;2024-03-02T10:16:40;15.95;;;8.20;;
50231;SDS011;36118;56.468;84.952;2024-03-02T10:21:47;20.17;;;6.97;;
50231;SDS011;36118;56.468;84.952;2024-03-02T10:26:55;10.65;;;3.95;;
50231;SDS011;36118;56.468;84.952;2024-03-02T10:32:02;8.70;;;4.07;;
50231;SDS011;36118;56.468;84.952;2024-03-02T10:37:06;17.80;;;7.00;;
50231;SDS011;36118;56.468;84.952;2024-03-02T10:42:12;17.02;;;7.38;;
50231;SDS011;36118;56.468;84.952;2024-03-02T10:47:18;16.42;;;8.38;;
50231;SDS011;36118;56.468;84.952;2024-03-02T10:52:23;18.05;;;7.45;;
50231;SDS011;36118;56.468;84.952;2024-03-02T10:57:27;19.67;;;7.38;;
50231;SDS011;36118;56.468;84.952;2024-03-02T11:02:34;12.68;;;5.40;;
50231;SDS011;36118;56.468;84.952;2024-03-02T11:07:39;13.95;;;7.03;;
50231;SDS011;36118;56.468;84.952;2024-03-02T11:12:46;9.63;;;3.65;;
50231;SDS011;36118;56.468;84.952;2024-03-02T11:17:54;11.07;;;4.00;;
50231;SDS011;36118;56.468;84.952;2024-03-02T11:23:03;17.67;;;8.35;;
50231;SDS011;36118;56.468;84.952;2024-03-02T11:28:08;19.30;;;6.53;;
50231;SDS011;36118;56.468;84.952;2024-03-02T11:33:13;19.57;;;7.47;;
50231;SDS011;36118;56.468;84.952;2024-03-02T11:38:17;15.15;;;6.07;;
50231;SDS011;36118;56.468;84.952;2024-03-02T11:43:21;19.73;;;6.72;;
50231;SDS011;36118;56.468;84.952;2024-03-02T11:48:27;16.70;;;7.15;;
50231;SDS011;36118;56.468;84.952;2024-03-02T11:53:31;22.52;;;9.32;;
50231;SDS011;36118;56.468;84.952;2024-03-02T11:58:37;39.75;;;10.10;;
50231;SDS011;36118;56.468;84.952;2024-03-02T12:03:46;18.10;;;8.38;;
50231;SDS011;36118;56.468;84.952;2024-03-02T12:08:55;20.15;;;8.85;;
50231;SDS011;36118;56.468;84.952;2024-03-02T12:13:59;18.80;;;8.40;;
50231;SDS011;36118;56.468;84.952;2024-03-02T12:19:03;31.10;;;12.33;;
50231;SDS011;36118;56.468;84.952;2024-03-02T12:24:07;29.45;;;10.25;;
50231;SDS011;36118;56.468;84.952;2024-03-02T12:29:11;30.83;;;12.75;;
50231;SDS011;36118;56.468;84.952;2024-03-02T12:34:16;25.38;;;10.30;;
50231;SDS011;36118;56.468;84.952;2024-03-02T12:39:24;25.35;;;10.32;;
50231;SDS011;36118;56.468;84.952;2024-03-02T12:44:28;27.70;;;9.30;;
50231;SDS011;36118;56.468;84.952;2024-03-02T12:49:32;23.65;;;10.35;;
50231;SDS011;36118;56.468;84.952;2024-03-02T12:54:35;24.70;;;9.75;;
50231;SDS011;36118;56.468;84.952;2024-03-02T12:59:39;20.77;;;9.82;;
50231;SDS011;36118;56.468;84.952;2024-03-02T13:04:52;29.10;;;9.55;;
50231;SDS011;36118;56.468;84.952;2024-03-02T13:09:59;21.00;;;9.02;;
50231;SDS011;36118;56.468;84.952;2024-03-02T13:20:08;22.60;;;10.23;;
50231;SDS011;36118;56.468;84.952;2024-03-02T13:25:13;22.52;;;9.60;;
50231;SDS011;36118;56.468;84.952;2024-03-02T13:30:18;21.30;;;8.65;;
50231;SDS011;36118;56.468;84.952;2024-03-02T13:35:22;22.90;;;9.07;;
50231;SDS011;36118;56.468;84.952;2024-03-02T13:40:26;11.93;;;5.57;;
50231;SDS011;36118;56.468;84.952;2024-03-02T13:45:30;18.35;;;8.30;;
50231;SDS011;36118;56.468;84.952;2024-03-02T13:50:38;17.80;;;8.77;;
50231;SDS011;36118;56.468;84.952;2024-03-02T13:55:56;22.13;;;7.88;;
50231;SDS011;36118;56.468;84.952;2024-03-02T14:01:02;17.48;;;7.32;;
50231;SDS011;36118;56.468;84.952;2024-03-02T14:06:09;16.40;;;7.15;;
50231;SDS011;36118;56.468;84.952;2024-03-02T14:11:16;14.02;;;7.25;;
50231;SDS011;36118;56.468;84.952;2024-03-02T14:16:20;18.87;;;6.33;;
50231;SDS011;36118;56.468;84.952;2024-03-02T14:21:24;17.02;;;8.10;;
50231;SDS011;36118;56.468;84.952;2024-03-02T14:26:28;20.10;;;8.32;;
50231;SDS011;36118;56.468;84.952;2024-03-02T14:31:32;22.00;;;9.80;;
50231;SDS011;36118;56.468;84.952;2024-03-02T14:36:38;29.35;;;9.05;;
50231;SDS011;36118;56.468;84.952;2024-03-02T14:41:56;18.92;;;8.65;;
50231;SDS011;36118;56.468;84.952;2024-03-02T14:47:01;22.73;;;9.83;;
50231;SDS011;36118;56.468;84.952;2024-03-02T14:52:06;17.67;;;7.35;;
50231;SDS011;36118;56.468;84.952;2024-03-02T14:57:10;19.27;;;7.40;;
50231;SDS011;36118;56.468;84.952;2024-03-02T15:02:15;26.08;;;9.93;;
50231;SDS011;36118;56.468;84.952;2024-03-02T15:07:17;25.77;;;10.35;;
50231;SDS011;36118;56.468;84.952;2024-03-02T15:12:20;24.13;;;10.32;;
50231;SDS011;36118;56.468;84.952;2024-03-02T15:17:25;20.52;;;9.32;;
50231;SDS011;36118;56.468;84.952;2024-03-02T15:22:28;21.90;;;9.27;;
50231;SDS011;36118;56.468;84.952;2024-03-02T15:27:31;18.48;;;7.90;;
50231;SDS011;36118;56.468;84.952;2024-03-02T15:37:40;11.60;;;4.60;;
50231;SDS011;36118;56.468;84.952;2024-03-02T15:42:43;18.70;;;6.63;;
50231;SDS011;36118;56.468;84.952;2024-03-02T15:47:46;14.90;;;6.07;;
50231;SDS011;36118;56.468;84.952;2024-03-02T15:52:49;12.07;;;5.18;;
50231;SDS011;36118;56.468;84.952;2024-03-02T15:57:53;15.80;;;6.97;;
50231;SDS011;36118;56.468;84.952;2024-03-02T16:02:56;22.73;;;9.40;;
50231;SDS011;36118;56.468;84.952;2024-03-02T16:07:59;20.80;;;7.53;;
50231;SDS011;36118;56.468;84.952;2024-03-02T16:13:02;19.65;;;8.80;;
50231;SDS011;36118;56.468;84.952;2024-03-02T16:23:09;24.20;;;7.88;;
50231;SDS011;36118;56.468;84.952;2024-03-02T16:28:12;20.45;;;7.45;;
50231;SDS011;36118;56.468;84.952;2024-03-02T16:33:16;20.50;;;7.47;;
50231;SDS011;36118;56.468;84.952;2024-03-02T16:38:20;23.30;;;8.25;;
50231;SDS011;36118;56.468;84.952;2024-03-02T16:43:23;10.93;;;4.37;;
50231;SDS011;36118;56.468;84.952;2024-03-02T16:48:26;21.98;;;7.65;;
50231;SDS011;36118;56.468;84.952;2024-03-02T16:53:29;21.27;;;7.10;;
50231;SDS011;36118;56.468;84.952;2024-03-02T16:58:32;22.98;;;9.18;;
50231;SDS011;36118;56.468;84.952;2024-03-02T17:03:35;20.07;;;9.10;;
50231;SDS011;36118;56.468;84.952;2024-03-02T17:13:41;17.20;;;6.20;;
50231;SDS011;36118;56.468;84.952;2024-03-02T17:18:44;11.87;;;5.30;;
50231;SDS011;36118;56.468;84.952;2024-03-02T17:23:51;14.40;;;6.03;;
50231;SDS011;36118;56.468;84.952;2024-03-02T17:28:55;17.42;;;6.80;;
50231;SDS011;36118;56.468;84.952;2024-03-02T17:33:58;17.53;;;7.93;;
50231;SDS011;36118;56.468;84.952;2024-03-02T17:39:02;21.65;;;7.32;;
50231;SDS011;36118;56.468;84.952;2024-03-02T17:44:06;22.00;;;8.25;;
50231;SDS011;36118;56.468;84.952;2024-03-02T17:49:09;13.10;;;5.33;;
50231;SDS011;36118;56.468;84.952;2024-03-02T17:59:15;20.17;;;6.90;;
50231;SDS011;36118;56.468;84.952;2024-03-02T18:04:18;20.67;;;7.50;;
50231;SDS011;36118;56.468;84.952;2024-03-02T18:09:24;20.52;;;9.23;;
50231;SDS011;36118;56.468;84.952;2024-03-02T18:14:27;15.77;;;7.30;;
50231;SDS011;36118;56.468;84.952;2024-03-02T18:19:30;16.00;;;6.70;;
50231;SDS011;36118;56.468;84.952;2024-03-02T18:24:34;17.58;;;7.10;;
50231;SDS011;36118;56.468;84.952;2024-03-02T18:29:39;17.48;;;6.55;;
50231;SDS011;36118;56.468;84.952;2024-03-02T18:34:43;14.88;;;6.03;;
50231;SDS011;36118;56.468;84.952;2024-03-02T18:39:48;13.52;;;5.82;;
50231;SDS011;36118;56.468;84.952;2024-03-02T18:49:55;15.20;;;6.63;;
50231;SDS011;36118;56.468;84.952;2024-03-02T18:55:00;22.80;;;8.85;;
50231;SDS011;36118;56.468;84.952;2024-03-02T19:00:05;21.25;;;9.07;;
50231;SDS011;36118;56.468;84.952;2024-03-02T19:05:16;20.48;;;8.95;;
50231;SDS011;36118;56.468;84.952;2024-03-02T19:10:20;22.25;;;8.57;;
50231;SDS011;36118;56.468;84.952;2024-03-02T19:15:24;26.63;;;10.57;;
50231;SDS011;36118;56.468;84.952;2024-03-02T19:20:27;20.92;;;8.82;;
50231;SDS011;36118;56.468;84.952;2024-03-02T19:25:30;25.52;;;9.90;;
50231;SDS011;36118;56.468;84.952;2024-03-02T19:30:35;23.77;;;10.07;;
50231;SDS011;36118;56.468;84.952;2024-03-02T19:35:41;32.35;;;13.15;;
50231;SDS011;36118;56.468;84.952;2024-03-02T19:40:45;33.15;;;12.05;;
50231;SDS011;36118;56.468;84.952;2024-03-02T19:45:48;30.73;;;11.67;;
50231;SDS011;36118;56.468;84.952;2024-03-02T19:50:51;26.30;;;10.80;;
50231;SDS011;36118;56.468;84.952;2024-03-02T20:00:57;29.42;;;12.07;;
50231;SDS011;36118;56.468;84.952;2024-03-02T20:06:01;26.60;;;13.05;;
50231;SDS011;36118;56.468;84.952;2024-03-02T20:11:03;39.50;;;15.18;;
50231;SDS011;36118;56.468;84.952;2024-03-02T20:16:07;36.38;;;14.48;;
50231;SDS011;36118;56.468;84.952;2024-03-02T20:21:11;42.17;;;13.95;;
50231;SDS011;36118;56.468;84.952;2024-03-02T20:26:14;57.72;;;22.88;;
50231;SDS011;36118;56.468;84.952;2024-03-02T20:31:20;52.97;;;21.42;;
50231;SDS011;36118;56.468;84.952;2024-03-02T20:36:24;56.95;;;21.67;;
50231;SDS011;36118;56.468;84.952;2024-03-02T20:41:27;65.55;;;27.55;;
50231;SDS011;36118;56.468;84.952;2024-03-02T20:51:51;71.60;;;27.20;;
50231;SDS011;36118;56.468;84.952;2024-03-02T20:56:54;75.57;;;29.88;;
50231;SDS011;36118;56.468;84.952;2024-03-02T21:01:58;84.03;;;33.03;;
50231;SDS011;36118;56.468;84.952;2024-03-02T21:07:02;81.90;;;28.63;;
50231;SDS011;36118;56.468;84.952;2024-03-02T21:12:05;69.95;;;27.35;;
50231;SDS011;36118;56.468;84.952;2024-03-02T21:17:10;101.90;;;37.58;;
50231;SDS011;36118;56.468;84.952;2024-03-02T21:22:14;99.20;;;38.58;;
50231;SDS011;36118;56.468;84.952;2024-03-02T21:27:17;83.57;;;30.05;;
50231;SDS011;36118;56.468;84.952;2024-03-02T21:32:22;82.18;;;32.17;;
50231;SDS011;36118;56.468;84.952;2024-03-02T21:37:26;76.60;;;28.33;;
50231;SDS011;36118;56.468;84.952;2024-03-02T21:42:33;62.15;;;25.55;;
50231;SDS011;36118;56.468;84.952;2024-03-02T21:47:36;68.97;;;25.63;;
50231;SDS011;36118;56.468;84.952;2024-03-02T21:52:39;84.88;;;29.83;;
50231;SDS011;36118;56.468;84.952;2024-03-02T21:57:42;97.40;;;36.72;;
50231;SDS011;36118;56.468;84.952;2024-03-02T22:02:45;84.03;;;32.38;;
50231;SDS011;36118;56.468;84.952;2024-03-02T22:07:49;104.40;;;37.20;;
50231;SDS011;36118;56.468;84.952;2024-03-02T22:12:52;114.70;;;38.22;;
50231;SDS011;36118;56.468;84.952;2024-03-02T22:17:57;96.60;;;34.35;;
50231;SDS011;36118;56.468;84.952;2024-03-02T22:23:05;103.97;;;36.33;;
50231;SDS011;36118;56.468;84.952;2024-03-02T22:28:13;110.05;;;38.42;;
50231;SDS011;36118;56.468;84.952;2024-03-02T22:33:17;102.82;;;35.75;;
50231;SDS011;36118;56.468;84.952;2024-03-02T22:38:20;105.80;;;36.80;;
50231;SDS011;36118;56.468;84.952;2024-03-02T22:43:23;93.38;;;33.63;;
50231;SDS011;36118;56.468;84.952;2024-03-02T22:48:26;84.32;;;31.83;;
50231;SDS011;36118;56.468;84.952;2024-03-02T22:53:29;84.40;;;30.27;;
50231;SDS011;36118;56.468;84.952;2024-03-02T22:58:33;83.80;;;28.08;;
50231;SDS011;36118;56.468;84.952;2024-03-02T23:03:37;78.80;;;28.27;;
50231;SDS011;36118;56.468;84.952;2024-03-02T23:08:41;73.18;;;26.75;;
50231;SDS011;36118;56.468;84.952;2024-03-02T23:13:45;82.53;;;29.70;;
50231;SDS011;36118;56.468;84.952;2024-03-02T23:18:48;75.78;;;29.10;;
50231;SDS011;36118;56.468;84.952;2024-03-02T23:23:55;78.18;;;27.75;;
50231;SDS011;36118;56.468;84.952;2024-03-02T23:28:59;78.38;;;27.25;;
50231;SDS011;36118;56.468;84.952;2024-03-02T23:39:11;81.97;;;26.77;;
50231;SDS011;36118;56.468;84.952;2024-03-02T23:44:34;67.25;;;21.95;;
50231;SDS011;36118;56.468;84.952;2024-03-02T23:54:41;67.93;;;23.92;;
50231;SDS011;36118;56.468;84.952;2024-03-02T23:59:45;73.28;;;26.33;;
